sensor_id;sensor_type;location;lat;lon;timestamp;P1;durP1;ratioP1;P2;durP2;ratioP2
74401;SDS011;62837;51.082;13.744;2023-02-08T00:01:20;32.90;;;17.50;;
74401;SDS011;62837;51.082;13.744;2023-02-08T00:03:52;28.90;;;14.40;;
74401;SDS011;62837;51.082;13.744;2023-02-08T00:06:23;33.50;;;15.90;;
74401;SDS011;62837;51.082;13.744;2023-02-08T00:08:54;27.50;;;11.60;;
74401;SDS011;62837;51.082;13.744;2023-02-08T00:11:25;34.10;;;18.20;;
74401;SDS011;62837;51.082;13.744;2023-02-08T00:13:56;30.90;;;15.20;;
74401;SDS011;62837;51.082;13.744;2023-02-08T00:16:26;25.20;;;11.10;;
74401;SDS011;62837;51.082;13.744;2023-02-08T00:18:57;26.30;;;12.90;;
74401;SDS011;62837;51.082;13.744;2023-02-08T00:21:28;12.50;;;5.20;;
74401;SDS011;62837;51.082;13.744;2023-02-08T00:23:59;28.90;;;12.60;;
74401;SDS011;62837;51.082;13.744;2023-02-08T00:26:29;19.70;;;8.60;;
74401;SDS011;62837;51.082;13.744;2023-02-08T00:29:00;33.80;;;16.40;;
74401;SDS011;62837;51.082;13.744;2023-02-08T00:31:31;31.30;;;14.40;;
74401;SDS011;62837;51.082;13.744;2023-02-08T00:34:04;31.10;;;14.70;;
74401;SDS011;62837;51.082;13.744;2023-02-08T00:36:35;28.70;;;13.80;;
74401;SDS011;62837;51.082;13.744;2023-02-08T00:39:05;34.40;;;16.00;;
74401;SDS011;62837;51.082;13.744;2023-02-08T00:41:36;28.70;;;13.00;;
74401;SDS011;62837;51.082;13.744;2023-02-08T00:44:07;23.50;;;10.90;;
74401;SDS011;62837;51.082;13.744;2023-02-08T00:46:38;24.10;;;11.70;;
74401;SDS011;62837;51.082;13.744;2023-02-08T00:49:08;28.30;;;12.80;;
74401;SDS011;62837;51.082;13.744;2023-02-08T00:51:39;32.90;;;15.00;;
74401;SDS011;62837;51.082;13.744;2023-02-08T00:56:44;31.80;;;14.40;;
74401;SDS011;62837;51.082;13.744;2023-02-08T00:59:15;26.60;;;11.30;;
74401;SDS011;62837;51.082;13.744;2023-02-08T01:01:46;16.70;;;8.30;;
74401;SDS011;62837;51.082;13.744;2023-02-08T01:04:17;28.20;;;13.90;;
74401;SDS011;62837;51.082;13.744;2023-02-08T01:06:47;30.70;;;13.90;;
74401;SDS011;62837;51.082;13.744;2023-02-08T01:09:18;29.90;;;13.00;;
74401;SDS011;62837;51.082;13.744;2023-02-08T01:11:49;29.20;;;13.60;;
74401;SDS011;62837;51.082;13.744;2023-02-08T01:14:20;20.60;;;10.40;;
74401;SDS011;62837;51.082;13.744;2023-02-08T01:16:50;28.00;;;12.20;;
74401;SDS011;62837;51.082;13.744;2023-02-08T01:19:21;28.60;;;14.80;;
74401;SDS011;62837;51.082;13.744;2023-02-08T01:21:52;32.50;;;14.40;;
74401;SDS011;62837;51.082;13.744;2023-02-08T01:24:23;33.10;;;16.40;;
74401;SDS011;62837;51.082;13.744;2023-02-08T01:26:54;29.20;;;13.60;;
74401;SDS011;62837;51.082;13.744;2023-02-08T01:29:25;27.10;;;10.50;;
74401;SDS011;62837;51.082;13.744;2023-02-08T01:31:56;25.50;;;10.80;;
74401;SDS011;62837;51.082;13.744;2023-02-08T01:34:29;26.80;;;12.00;;
74401;SDS011;62837;51.082;13.744;2023-02-08T01:37:00;30.60;;;13.50;;
74401;SDS011;62837;51.082;13.744;2023-02-08T01:39:30;26.50;;;12.40;;
74401;SDS011;62837;51.082;13.744;2023-02-08T01:42:01;27.80;;;13.60;;
74401;SDS011;62837;51.082;13.744;2023-02-08T01:47:38;20.60;;;10.00;;
74401;SDS011;62837;51.082;13.744;2023-02-08T01:50:11;27.50;;;12.70;;
74401;SDS011;62837;51.082;13.744;2023-02-08T01:52:43;31.70;;;16.10;;
74401;SDS011;62837;51.082;13.744;2023-02-08T01:55:15;17.90;;;9.40;;
74401;SDS011;62837;51.082;13.744;2023-02-08T01:57:50;17.80;;;8.60;;
74401;SDS011;62837;51.082;13.744;2023-02-08T02:00:25;25.60;;;11.50;;
74401;SDS011;62837;51.082;13.744;2023-02-08T02:02:56;26.50;;;13.20;;
74401;SDS011;62837;51.082;13.744;2023-02-08T02:05:30;33.00;;;15.70;;
74401;SDS011;62837;51.082;13.744;2023-02-08T02:08:03;36.00;;;15.90;;
74401;SDS011;62837;51.082;13.744;2023-02-08T02:10:35;31.80;;;14.80;;
74401;SDS011;62837;51.082;13.744;2023-02-08T02:13:09;30.80;;;13.40;;
74401;SDS011;62837;51.082;13.744;2023-02-08T02:15:43;35.70;;;16.50;;
74401;SDS011;62837;51.082;13.744;2023-02-08T02:18:16;32.50;;;13.80;;
74401;SDS011;62837;51.082;13.744;2023-02-08T02:20:56;24.10;;;10.30;;
74401;SDS011;62837;51.082;13.744;2023-02-08T02:23:48;28.00;;;11.70;;
74401;SDS011;62837;51.082;13.744;2023-02-08T02:26:45;28.80;;;13.50;;
74401;SDS011;62837;51.082;13.744;2023-02-08T02:29:42;31.00;;;13.90;;
74401;SDS011;62837;51.082;13.744;2023-02-08T02:32:39;31.40;;;14.20;;
74401;SDS011;62837;51.082;13.744;2023-02-08T02:35:21;35.80;;;14.20;;
74401;SDS011;62837;51.082;13.744;2023-02-08T02:38:03;12.80;;;6.20;;
74401;SDS011;62837;51.082;13.744;2023-02-08T02:40:42;23.70;;;11.60;;
74401;SDS011;62837;51.082;13.744;2023-02-08T02:43:22;20.10;;;9.60;;
74401;SDS011;62837;51.082;13.744;2023-02-08T02:46:14;31.20;;;14.30;;
74401;SDS011;62837;51.082;13.744;2023-02-08T02:48:55;22.30;;;11.70;;
74401;SDS011;62837;51.082;13.744;2023-02-08T02:51:34;27.10;;;13.10;;
74401;SDS011;62837;51.082;13.744;2023-02-08T02:54:10;7.10;;;3.70;;
74401;SDS011;62837;51.082;13.744;2023-02-08T02:56:47;25.80;;;11.40;;
74401;SDS011;62837;51.082;13.744;2023-02-08T02:59:23;28.10;;;12.60;;
74401;SDS011;62837;51.082;13.744;2023-02-08T03:01:55;30.70;;;13.50;;
74401;SDS011;62837;51.082;13.744;2023-02-08T03:07:19;13.10;;;5.70;;
74401;SDS011;62837;51.082;13.744;2023-02-08T03:10:01;15.20;;;7.50;;
74401;SDS011;62837;51.082;13.744;2023-02-08T03:12:43;20.60;;;9.10;;
74401;SDS011;62837;51.082;13.744;2023-02-08T03:15:26;27.70;;;12.00;;
74401;SDS011;62837;51.082;13.744;2023-02-08T03:18:10;25.00;;;12.10;;
74401;SDS011;62837;51.082;13.744;2023-02-08T03:20:55;17.90;;;8.60;;
74401;SDS011;62837;51.082;13.744;2023-02-08T03:23:31;19.80;;;9.40;;
74401;SDS011;62837;51.082;13.744;2023-02-08T03:26:10;25.00;;;11.60;;
74401;SDS011;62837;51.082;13.744;2023-02-08T03:28:47;27.90;;;13.60;;
74401;SDS011;62837;51.082;13.744;2023-02-08T03:31:27;35.60;;;14.20;;
74401;SDS011;62837;51.082;13.744;2023-02-08T03:34:01;22.60;;;8.70;;
74401;SDS011;62837;51.082;13.744;2023-02-08T03:36:41;19.60;;;8.90;;
74401;SDS011;62837;51.082;13.744;2023-02-08T03:39:19;18.20;;;6.70;;
74401;SDS011;62837;51.082;13.744;2023-02-08T03:41:54;25.60;;;13.20;;
74401;SDS011;62837;51.082;13.744;2023-02-08T03:44:32;30.40;;;13.10;;
74401;SDS011;62837;51.082;13.744;2023-02-08T03:47:06;27.20;;;12.20;;
74401;SDS011;62837;51.082;13.744;2023-02-08T03:49:40;31.00;;;15.70;;
74401;SDS011;62837;51.082;13.744;2023-02-08T03:54:43;27.90;;;12.20;;
74401;SDS011;62837;51.082;13.744;2023-02-08T03:57:19;37.80;;;15.10;;
74401;SDS011;62837;51.082;13.744;2023-02-08T03:59:53;27.20;;;13.40;;
74401;SDS011;62837;51.082;13.744;2023-02-08T04:02:28;24.60;;;11.40;;
74401;SDS011;62837;51.082;13.744;2023-02-08T04:07:31;27.70;;;12.50;;
74401;SDS011;62837;51.082;13.744;2023-02-08T04:10:02;25.90;;;11.70;;
74401;SDS011;62837;51.082;13.744;2023-02-08T04:12:33;26.20;;;11.40;;
74401;SDS011;62837;51.082;13.744;2023-02-08T04:15:06;15.80;;;6.90;;
74401;SDS011;62837;51.082;13.744;2023-02-08T04:17:37;23.70;;;11.20;;
74401;SDS011;62837;51.082;13.744;2023-02-08T04:20:09;22.50;;;11.40;;
74401;SDS011;62837;51.082;13.744;2023-02-08T04:22:40;31.80;;;15.20;;
74401;SDS011;62837;51.082;13.744;2023-02-08T04:25:11;33.30;;;15.20;;
74401;SDS011;62837;51.082;13.744;2023-02-08T04:27:42;30.80;;;13.50;;
74401;SDS011;62837;51.082;13.744;2023-02-08T04:30:13;24.40;;;11.20;;
74401;SDS011;62837;51.082;13.744;2023-02-08T04:32:43;28.50;;;13.40;;
74401;SDS011;62837;51.082;13.744;2023-02-08T04:35:14;24.20;;;10.60;;
74401;SDS011;62837;51.082;13.744;2023-02-08T04:37:45;28.90;;;12.90;;
74401;SDS011;62837;51.082;13.744;2023-02-08T04:40:16;29.40;;;13.50;;
74401;SDS011;62837;51.082;13.744;2023-02-08T04:42:47;29.80;;;13.40;;
74401;SDS011;62837;51.082;13.744;2023-02-08T04:45:18;31.20;;;14.50;;
74401;SDS011;62837;51.082;13.744;2023-02-08T04:47:49;33.90;;;15.30;;
74401;SDS011;62837;51.082;13.744;2023-02-08T04:50:20;32.00;;;12.80;;
74401;SDS011;62837;51.082;13.744;2023-02-08T04:52:51;29.80;;;12.40;;
74401;SDS011;62837;51.082;13.744;2023-02-08T04:55:22;28.50;;;13.40;;
74401;SDS011;62837;51.082;13.744;2023-02-08T04:57:53;28.10;;;13.50;;
74401;SDS011;62837;51.082;13.744;2023-02-08T05:00:23;32.60;;;15.70;;
74401;SDS011;62837;51.082;13.744;2023-02-08T05:02:55;34.90;;;15.70;;
74401;SDS011;62837;51.082;13.744;2023-02-08T05:05:26;37.50;;;17.00;;
74401;SDS011;62837;51.082;13.744;2023-02-08T05:07:57;38.90;;;15.00;;
74401;SDS011;62837;51.082;13.744;2023-02-08T05:10:28;25.00;;;11.60;;
74401;SDS011;62837;51.082;13.744;2023-02-08T05:12:58;26.20;;;10.50;;
74401;SDS011;62837;51.082;13.744;2023-02-08T05:15:29;24.60;;;10.20;;
74401;SDS011;62837;51.082;13.744;2023-02-08T05:18:00;25.70;;;10.30;;
74401;SDS011;62837;51.082;13.744;2023-02-08T05:20:31;31.60;;;13.30;;
74401;SDS011;62837;51.082;13.744;2023-02-08T05:23:02;27.80;;;12.00;;
74401;SDS011;62837;51.082;13.744;2023-02-08T05:25:33;22.90;;;10.20;;
74401;SDS011;62837;51.082;13.744;2023-02-08T05:28:05;37.10;;;14.20;;
74401;SDS011;62837;51.082;13.744;2023-02-08T05:30:37;31.70;;;14.10;;
74401;SDS011;62837;51.082;13.744;2023-02-08T05:33:09;28.20;;;11.20;;
74401;SDS011;62837;51.082;13.744;2023-02-08T05:35:39;34.40;;;15.90;;
74401;SDS011;62837;51.082;13.744;2023-02-08T05:38:12;33.40;;;15.10;;
74401;SDS011;62837;51.082;13.744;2023-02-08T05:40:43;27.90;;;12.10;;
74401;SDS011;62837;51.082;13.744;2023-02-08T05:43:13;31.20;;;14.80;;
74401;SDS011;62837;51.082;13.744;2023-02-08T05:45:44;30.90;;;15.00;;
74401;SDS011;62837;51.082;13.744;2023-02-08T05:48:15;35.30;;;16.00;;
74401;SDS011;62837;51.082;13.744;2023-02-08T05:50:46;27.50;;;12.60;;
74401;SDS011;62837;51.082;13.744;2023-02-08T05:53:16;34.10;;;12.80;;
74401;SDS011;62837;51.082;13.744;2023-02-08T05:55:48;35.00;;;14.80;;
74401;SDS011;62837;51.082;13.744;2023-02-08T05:58:19;36.20;;;15.60;;
74401;SDS011;62837;51.082;13.744;2023-02-08T06:00:50;30.60;;;13.40;;
74401;SDS011;62837;51.082;13.744;2023-02-08T06:03:21;34.90;;;14.40;;
74401;SDS011;62837;51.082;13.744;2023-02-08T06:05:52;36.80;;;16.10;;
74401;SDS011;62837;51.082;13.744;2023-02-08T06:08:25;36.70;;;14.00;;
74401;SDS011;62837;51.082;13.744;2023-02-08T06:10:56;30.10;;;14.30;;
74401;SDS011;62837;51.082;13.744;2023-02-08T06:13:26;32.30;;;14.10;;
74401;SDS011;62837;51.082;13.744;2023-02-08T06:16:05;30.00;;;14.00;;
74401;SDS011;62837;51.082;13.744;2023-02-08T06:18:36;33.60;;;13.80;;
74401;SDS011;62837;51.082;13.744;2023-02-08T06:21:07;30.20;;;13.60;;
74401;SDS011;62837;51.082;13.744;2023-02-08T06:23:39;31.40;;;14.40;;
74401;SDS011;62837;51.082;13.744;2023-02-08T06:26:10;26.80;;;12.10;;
74401;SDS011;62837;51.082;13.744;2023-02-08T06:28:41;27.00;;;11.70;;
74401;SDS011;62837;51.082;13.744;2023-02-08T06:31:12;30.30;;;13.00;;
74401;SDS011;62837;51.082;13.744;2023-02-08T06:33:43;31.30;;;12.50;;
74401;SDS011;62837;51.082;13.744;2023-02-08T06:36:13;24.20;;;10.90;;
74401;SDS011;62837;51.082;13.744;2023-02-08T06:38:44;22.00;;;10.00;;
74401;SDS011;62837;51.082;13.744;2023-02-08T06:41:18;35.90;;;14.00;;
74401;SDS011;62837;51.082;13.744;2023-02-08T06:43:49;27.40;;;12.90;;
74401;SDS011;62837;51.082;13.744;2023-02-08T06:46:19;26.60;;;12.50;;
74401;SDS011;62837;51.082;13.744;2023-02-08T06:48:50;32.30;;;12.80;;
74401;SDS011;62837;51.082;13.744;2023-02-08T06:51:22;18.80;;;7.60;;
74401;SDS011;62837;51.082;13.744;2023-02-08T06:53:52;28.60;;;10.60;;
74401;SDS011;62837;51.082;13.744;2023-02-08T06:56:23;30.20;;;13.20;;
74401;SDS011;62837;51.082;13.744;2023-02-08T06:58:54;32.90;;;14.60;;
74401;SDS011;62837;51.082;13.744;2023-02-08T07:01:25;30.30;;;12.00;;
74401;SDS011;62837;51.082;13.744;2023-02-08T07:03:56;33.40;;;14.90;;
74401;SDS011;62837;51.082;13.744;2023-02-08T07:06:27;34.20;;;14.00;;
74401;SDS011;62837;51.082;13.744;2023-02-08T07:08:57;36.60;;;16.40;;
74401;SDS011;62837;51.082;13.744;2023-02-08T07:11:29;34.10;;;13.10;;
74401;SDS011;62837;51.082;13.744;2023-02-08T07:14:00;28.90;;;11.70;;
74401;SDS011;62837;51.082;13.744;2023-02-08T07:16:30;32.70;;;14.30;;
74401;SDS011;62837;51.082;13.744;2023-02-08T07:19:01;32.80;;;14.80;;
74401;SDS011;62837;51.082;13.744;2023-02-08T07:21:32;28.20;;;11.70;;
74401;SDS011;62837;51.082;13.744;2023-02-08T07:24:03;23.30;;;10.70;;
74401;SDS011;62837;51.082;13.744;2023-02-08T07:26:34;27.10;;;10.30;;
74401;SDS011;62837;51.082;13.744;2023-02-08T07:29:05;27.30;;;11.90;;
74401;SDS011;62837;51.082;13.744;2023-02-08T07:31:35;29.40;;;13.10;;
74401;SDS011;62837;51.082;13.744;2023-02-08T07:34:06;31.60;;;14.90;;
74401;SDS011;62837;51.082;13.744;2023-02-08T07:36:37;28.90;;;12.00;;
74401;SDS011;62837;51.082;13.744;2023-02-08T07:39:08;29.20;;;12.80;;
74401;SDS011;62837;51.082;13.744;2023-02-08T07:41:38;29.70;;;12.10;;
74401;SDS011;62837;51.082;13.744;2023-02-08T07:44:09;32.10;;;14.20;;
74401;SDS011;62837;51.082;13.744;2023-02-08T07:46:40;36.20;;;16.80;;
74401;SDS011;62837;51.082;13.744;2023-02-08T07:49:11;30.50;;;13.20;;
74401;SDS011;62837;51.082;13.744;2023-02-08T07:51:42;29.00;;;12.70;;
74401;SDS011;62837;51.082;13.744;2023-02-08T07:54:13;34.60;;;15.30;;
74401;SDS011;62837;51.082;13.744;2023-02-08T07:56:44;30.90;;;13.70;;
74401;SDS011;62837;51.082;13.744;2023-02-08T07:59:14;40.70;;;18.50;;
74401;SDS011;62837;51.082;13.744;2023-02-08T08:01:45;40.10;;;15.00;;
74401;SDS011;62837;51.082;13.744;2023-02-08T08:04:16;39.20;;;18.60;;
74401;SDS011;62837;51.082;13.744;2023-02-08T08:06:51;34.90;;;16.70;;
74401;SDS011;62837;51.082;13.744;2023-02-08T08:09:22;37.20;;;17.70;;
74401;SDS011;62837;51.082;13.744;2023-02-08T08:11:52;41.60;;;17.90;;
74401;SDS011;62837;51.082;13.744;2023-02-08T08:14:23;38.90;;;16.70;;
74401;SDS011;62837;51.082;13.744;2023-02-08T08:16:54;44.00;;;19.80;;
74401;SDS011;62837;51.082;13.744;2023-02-08T08:19:25;40.00;;;18.90;;
74401;SDS011;62837;51.082;13.744;2023-02-08T08:21:56;36.30;;;17.20;;
74401;SDS011;62837;51.082;13.744;2023-02-08T08:24:26;13.80;;;6.30;;
74401;SDS011;62837;51.082;13.744;2023-02-08T08:26:58;26.40;;;12.60;;
74401;SDS011;62837;51.082;13.744;2023-02-08T08:29:31;31.50;;;14.70;;
74401;SDS011;62837;51.082;13.744;2023-02-08T08:32:03;28.00;;;13.00;;
74401;SDS011;62837;51.082;13.744;2023-02-08T08:34:37;35.50;;;16.10;;
74401;SDS011;62837;51.082;13.744;2023-02-08T08:37:08;28.90;;;13.30;;
74401;SDS011;62837;51.082;13.744;2023-02-08T08:39:39;29.70;;;14.60;;
74401;SDS011;62837;51.082;13.744;2023-02-08T08:42:10;27.30;;;13.80;;
74401;SDS011;62837;51.082;13.744;2023-02-08T08:44:40;34.20;;;15.10;;
74401;SDS011;62837;51.082;13.744;2023-02-08T08:47:11;24.80;;;11.70;;
74401;SDS011;62837;51.082;13.744;2023-02-08T08:49:42;27.60;;;14.30;;
74401;SDS011;62837;51.082;13.744;2023-02-08T08:52:15;25.80;;;12.90;;
74401;SDS011;62837;51.082;13.744;2023-02-08T08:54:46;26.70;;;12.00;;
74401;SDS011;62837;51.082;13.744;2023-02-08T08:57:17;35.00;;;17.00;;
74401;SDS011;62837;51.082;13.744;2023-02-08T08:59:47;33.70;;;16.60;;
74401;SDS011;62837;51.082;13.744;2023-02-08T09:02:18;35.90;;;16.10;;
74401;SDS011;62837;51.082;13.744;2023-02-08T09:04:49;27.40;;;13.10;;
74401;SDS011;62837;51.082;13.744;2023-02-08T09:07:20;28.50;;;13.90;;
74401;SDS011;62837;51.082;13.744;2023-02-08T09:09:50;35.40;;;16.30;;
74401;SDS011;62837;51.082;13.744;2023-02-08T09:12:21;18.20;;;9.40;;
74401;SDS011;62837;51.082;13.744;2023-02-08T09:14:52;23.60;;;12.10;;
74401;SDS011;62837;51.082;13.744;2023-02-08T09:17:23;23.90;;;11.30;;
74401;SDS011;62837;51.082;13.744;2023-02-08T09:19:53;27.40;;;14.60;;
74401;SDS011;62837;51.082;13.744;2023-02-08T09:22:24;29.60;;;14.90;;
74401;SDS011;62837;51.082;13.744;2023-02-08T09:24:56;24.90;;;12.60;;
74401;SDS011;62837;51.082;13.744;2023-02-08T09:27:28;28.30;;;13.40;;
74401;SDS011;62837;51.082;13.744;2023-02-08T09:29:59;23.20;;;10.40;;
74401;SDS011;62837;51.082;13.744;2023-02-08T09:32:31;25.70;;;13.30;;
74401;SDS011;62837;51.082;13.744;2023-02-08T09:37:32;22.00;;;10.00;;
74401;SDS011;62837;51.082;13.744;2023-02-08T09:40:04;26.70;;;11.40;;
74401;SDS011;62837;51.082;13.744;2023-02-08T09:42:48;20.30;;;9.30;;
74401;SDS011;62837;51.082;13.744;2023-02-08T09:48:28;22.50;;;11.20;;
74401;SDS011;62837;51.082;13.744;2023-02-08T09:51:03;20.90;;;10.20;;
74401;SDS011;62837;51.082;13.744;2023-02-08T09:53:40;18.70;;;8.80;;
74401;SDS011;62837;51.082;13.744;2023-02-08T09:56:14;25.20;;;12.80;;
74401;SDS011;62837;51.082;13.744;2023-02-08T09:58:48;22.30;;;10.70;;
74401;SDS011;62837;51.082;13.744;2023-02-08T10:01:21;22.50;;;10.20;;
74401;SDS011;62837;51.082;13.744;2023-02-08T10:03:55;25.20;;;11.60;;
74401;SDS011;62837;51.082;13.744;2023-02-08T10:06:29;22.10;;;11.10;;
74401;SDS011;62837;51.082;13.744;2023-02-08T10:09:00;21.60;;;11.40;;
74401;SDS011;62837;51.082;13.744;2023-02-08T10:11:41;21.00;;;11.20;;
74401;SDS011;62837;51.082;13.744;2023-02-08T10:14:33;18.80;;;8.70;;
74401;SDS011;62837;51.082;13.744;2023-02-08T10:17:22;23.80;;;12.10;;
74401;SDS011;62837;51.082;13.744;2023-02-08T10:20:11;23.40;;;11.40;;
74401;SDS011;62837;51.082;13.744;2023-02-08T10:22:58;21.80;;;11.70;;
74401;SDS011;62837;51.082;13.744;2023-02-08T10:28:36;17.10;;;8.70;;
74401;SDS011;62837;51.082;13.744;2023-02-08T10:31:24;22.10;;;9.10;;
74401;SDS011;62837;51.082;13.744;2023-02-08T10:34:08;23.40;;;11.10;;
74401;SDS011;62837;51.082;13.744;2023-02-08T10:36:47;20.40;;;9.30;;
74401;SDS011;62837;51.082;13.744;2023-02-08T10:39:20;19.70;;;10.00;;
74401;SDS011;62837;51.082;13.744;2023-02-08T10:41:56;16.00;;;8.20;;
74401;SDS011;62837;51.082;13.744;2023-02-08T10:44:29;25.10;;;13.80;;
74401;SDS011;62837;51.082;13.744;2023-02-08T10:47:09;23.60;;;11.10;;
74401;SDS011;62837;51.082;13.744;2023-02-08T10:49:46;24.30;;;12.30;;
74401;SDS011;62837;51.082;13.744;2023-02-08T10:52:23;20.40;;;10.60;;
74401;SDS011;62837;51.082;13.744;2023-02-08T10:54:54;19.60;;;9.60;;
74401;SDS011;62837;51.082;13.744;2023-02-08T10:57:27;24.20;;;11.90;;
74401;SDS011;62837;51.082;13.744;2023-02-08T11:00:03;22.10;;;10.50;;
74401;SDS011;62837;51.082;13.744;2023-02-08T11:02:40;21.30;;;11.40;;
74401;SDS011;62837;51.082;13.744;2023-02-08T11:05:14;17.80;;;8.60;;
74401;SDS011;62837;51.082;13.744;2023-02-08T11:07:47;19.70;;;9.00;;
74401;SDS011;62837;51.082;13.744;2023-02-08T11:10:35;21.90;;;10.50;;
74401;SDS011;62837;51.082;13.744;2023-02-08T11:13:13;19.70;;;10.40;;
74401;SDS011;62837;51.082;13.744;2023-02-08T11:15:46;20.50;;;11.20;;
74401;SDS011;62837;51.082;13.744;2023-02-08T11:18:21;18.50;;;9.20;;
74401;SDS011;62837;51.082;13.744;2023-02-08T11:20:54;16.00;;;8.10;;
74401;SDS011;62837;51.082;13.744;2023-02-08T11:23:28;14.60;;;7.40;;
74401;SDS011;62837;51.082;13.744;2023-02-08T11:26:13;19.10;;;9.20;;
74401;SDS011;62837;51.082;13.744;2023-02-08T11:31:26;16.90;;;7.70;;
74401;SDS011;62837;51.082;13.744;2023-02-08T11:33:59;24.20;;;10.60;;
74401;SDS011;62837;51.082;13.744;2023-02-08T11:39:14;18.50;;;8.10;;
74401;SDS011;62837;51.082;13.744;2023-02-08T11:41:51;18.50;;;9.80;;
74401;SDS011;62837;51.082;13.744;2023-02-08T11:44:25;22.40;;;11.00;;
74401;SDS011;62837;51.082;13.744;2023-02-08T11:46:59;21.20;;;10.90;;
74401;SDS011;62837;51.082;13.744;2023-02-08T11:49:34;16.50;;;8.10;;
74401;SDS011;62837;51.082;13.744;2023-02-08T11:52:17;20.20;;;9.20;;
74401;SDS011;62837;51.082;13.744;2023-02-08T11:54:52;17.90;;;8.70;;
74401;SDS011;62837;51.082;13.744;2023-02-08T11:57:38;20.00;;;10.00;;
74401;SDS011;62837;51.082;13.744;2023-02-08T12:00:23;22.90;;;11.10;;
74401;SDS011;62837;51.082;13.744;2023-02-08T12:02:55;19.50;;;8.70;;
74401;SDS011;62837;51.082;13.744;2023-02-08T12:05:31;21.70;;;10.70;;
74401;SDS011;62837;51.082;13.744;2023-02-08T12:08:14;24.50;;;11.80;;
74401;SDS011;62837;51.082;13.744;2023-02-08T12:11:07;22.70;;;10.30;;
74401;SDS011;62837;51.082;13.744;2023-02-08T12:13:51;18.90;;;9.00;;
74401;SDS011;62837;51.082;13.744;2023-02-08T12:16:42;15.20;;;7.20;;
74401;SDS011;62837;51.082;13.744;2023-02-08T12:19:48;16.70;;;8.50;;
74401;SDS011;62837;51.082;13.744;2023-02-08T12:22:28;20.20;;;8.50;;
74401;SDS011;62837;51.082;13.744;2023-02-08T12:25:03;16.50;;;8.60;;
74401;SDS011;62837;51.082;13.744;2023-02-08T12:27:47;20.60;;;9.30;;
74401;SDS011;62837;51.082;13.744;2023-02-08T12:30:28;15.30;;;7.10;;
74401;SDS011;62837;51.082;13.744;2023-02-08T12:33:14;13.80;;;6.70;;
74401;SDS011;62837;51.082;13.744;2023-02-08T12:42:02;13.50;;;6.40;;
74401;SDS011;62837;51.082;13.744;2023-02-08T12:44:45;21.20;;;9.00;;
74401;SDS011;62837;51.082;13.744;2023-02-08T12:47:29;25.20;;;11.40;;
74401;SDS011;62837;51.082;13.744;2023-02-08T12:50:30;18.80;;;9.70;;
74401;SDS011;62837;51.082;13.744;2023-02-08T12:53:08;15.40;;;7.30;;
74401;SDS011;62837;51.082;13.744;2023-02-08T12:55:45;19.00;;;8.00;;
74401;SDS011;62837;51.082;13.744;2023-02-08T12:58:23;14.70;;;7.30;;
74401;SDS011;62837;51.082;13.744;2023-02-08T13:00:58;16.40;;;8.10;;
74401;SDS011;62837;51.082;13.744;2023-02-08T13:03:37;14.90;;;7.50;;
74401;SDS011;62837;51.082;13.744;2023-02-08T13:06:16;15.60;;;8.60;;
74401;SDS011;62837;51.082;13.744;2023-02-08T13:08:51;15.70;;;7.60;;
74401;SDS011;62837;51.082;13.744;2023-02-08T13:11:29;15.70;;;7.30;;
74401;SDS011;62837;51.082;13.744;2023-02-08T13:14:07;13.10;;;6.60;;
74401;SDS011;62837;51.082;13.744;2023-02-08T13:16:57;11.40;;;5.80;;
74401;SDS011;62837;51.082;13.744;2023-02-08T13:19:41;18.20;;;6.80;;
74401;SDS011;62837;51.082;13.744;2023-02-08T13:22:27;15.30;;;7.20;;
74401;SDS011;62837;51.082;13.744;2023-02-08T13:25:02;9.00;;;4.50;;
74401;SDS011;62837;51.082;13.744;2023-02-08T13:27:42;9.70;;;4.10;;
74401;SDS011;62837;51.082;13.744;2023-02-08T13:30:17;15.30;;;7.20;;
74401;SDS011;62837;51.082;13.744;2023-02-08T13:32:50;17.70;;;7.50;;
74401;SDS011;62837;51.082;13.744;2023-02-08T13:35:24;14.10;;;6.70;;
74401;SDS011;62837;51.082;13.744;2023-02-08T13:37:57;16.40;;;7.30;;
74401;SDS011;62837;51.082;13.744;2023-02-08T13:40:32;18.30;;;7.80;;
74401;SDS011;62837;51.082;13.744;2023-02-08T13:45:38;7.90;;;4.40;;
74401;SDS011;62837;51.082;13.744;2023-02-08T13:48:11;13.90;;;5.80;;
74401;SDS011;62837;51.082;13.744;2023-02-08T13:50:45;14.80;;;5.90;;
74401;SDS011;62837;51.082;13.744;2023-02-08T13:53:19;15.30;;;7.00;;
74401;SDS011;62837;51.082;13.744;2023-02-08T13:56:38;16.10;;;7.80;;
74401;SDS011;62837;51.082;13.744;2023-02-08T13:59:32;15.40;;;6.60;;
74401;SDS011;62837;51.082;13.744;2023-02-08T14:02:19;13.40;;;6.60;;
74401;SDS011;62837;51.082;13.744;2023-02-08T14:04:54;19.40;;;9.00;;
74401;SDS011;62837;51.082;13.744;2023-02-08T14:07:49;8.10;;;4.20;;
74401;SDS011;62837;51.082;13.744;2023-02-08T14:10:26;12.40;;;5.20;;
74401;SDS011;62837;51.082;13.744;2023-02-08T14:15:36;15.50;;;7.70;;
74401;SDS011;62837;51.082;13.744;2023-02-08T14:21:05;13.20;;;6.40;;
74401;SDS011;62837;51.082;13.744;2023-02-08T14:26:28;14.90;;;7.60;;
74401;SDS011;62837;51.082;13.744;2023-02-08T14:29:03;14.20;;;7.00;;
74401;SDS011;62837;51.082;13.744;2023-02-08T14:31:36;15.70;;;7.30;;
74401;SDS011;62837;51.082;13.744;2023-02-08T14:34:21;14.60;;;7.20;;
74401;SDS011;62837;51.082;13.744;2023-02-08T14:37:01;19.20;;;8.00;;
74401;SDS011;62837;51.082;13.744;2023-02-08T14:43:03;16.30;;;7.20;;
74401;SDS011;62837;51.082;13.744;2023-02-08T14:45:55;9.90;;;4.70;;
74401;SDS011;62837;51.082;13.744;2023-02-08T14:48:46;14.60;;;6.90;;
74401;SDS011;62837;51.082;13.744;2023-02-08T14:51:20;15.20;;;7.70;;
74401;SDS011;62837;51.082;13.744;2023-02-08T14:53:57;10.50;;;5.70;;
74401;SDS011;62837;51.082;13.744;2023-02-08T14:56:34;8.60;;;3.80;;
74401;SDS011;62837;51.082;13.744;2023-02-08T14:59:14;11.90;;;5.90;;
74401;SDS011;62837;51.082;13.744;2023-02-08T15:01:46;6.70;;;3.50;;
74401;SDS011;62837;51.082;13.744;2023-02-08T15:04:20;10.40;;;5.00;;
74401;SDS011;62837;51.082;13.744;2023-02-08T15:06:59;10.80;;;5.40;;
74401;SDS011;62837;51.082;13.744;2023-02-08T15:09:48;16.70;;;8.20;;
74401;SDS011;62837;51.082;13.744;2023-02-08T15:12:21;17.60;;;7.90;;
74401;SDS011;62837;51.082;13.744;2023-02-08T15:14:58;16.80;;;8.30;;
74401;SDS011;62837;51.082;13.744;2023-02-08T15:17:32;13.90;;;6.80;;
74401;SDS011;62837;51.082;13.744;2023-02-08T15:20:08;15.40;;;7.50;;
74401;SDS011;62837;51.082;13.744;2023-02-08T15:22:55;16.90;;;7.60;;
74401;SDS011;62837;51.082;13.744;2023-02-08T15:25:29;18.30;;;8.50;;
74401;SDS011;62837;51.082;13.744;2023-02-08T15:28:02;18.00;;;8.90;;
74401;SDS011;62837;51.082;13.744;2023-02-08T15:30:44;14.40;;;6.60;;
74401;SDS011;62837;51.082;13.744;2023-02-08T15:33:24;13.40;;;6.30;;
74401;SDS011;62837;51.082;13.744;2023-02-08T15:35:58;12.20;;;5.20;;
74401;SDS011;62837;51.082;13.744;2023-02-08T15:38:34;15.30;;;7.40;;
74401;SDS011;62837;51.082;13.744;2023-02-08T15:41:07;17.40;;;6.30;;
74401;SDS011;62837;51.082;13.744;2023-02-08T15:43:40;17.10;;;7.90;;
74401;SDS011;62837;51.082;13.744;2023-02-08T15:46:17;18.40;;;8.40;;